Loughman, Florida
Current Conditions -  °F | °C
As of 4:50 PM on Monday 20 Oct 2014 (Local Time) from KISM Reporting Station
Few Clouds Few Clouds  
Wind Chill: 84°   Ceiling: Unl
Heat Index: 84°   Visibility: 10mi
Dew Point: 59°   Wind: 6mph
Humidity: 42%   Direction: 100°E
Pressure: 29.96"   Gusts: NA
Location:  28.24°N, 81.57°W
Report Text: KISM 202050Z 10005KT 10SM FEW050 29/15 A2996
Loading
Personal Weather Stations






























Interactive Weather Map
Tropical Storm Tracking
New forecast layout! Learn more

10-Day Weather Forecast

Advertisements
Track Severe Weather on mobile